Time;durP1;ratioP1;P1;durP2;ratioP2;P2;SDS_P1;SDS_P2;PMS_P1;PMS_P2;Temp;Humidity;BMP_temperature;BMP_pressure;BME280_temperature;BME280_humidity;BME280_pressure;Samples;Min_cycle;Max_cycle;Signal;HPM_P1;HPM_P2
2024/03/03 00:01:23;;;;;;;49.60;29.52;;;9.30;99.90;;;;;;5028995;28;20053;-56
2024/03/03 00:03:48;;;;;;;37.35;20.67;;;9.20;99.90;;;;;;5028747;28;20057;-53
2024/03/03 00:06:14;;;;;;;29.55;17.80;;;9.30;99.90;;;;;;5027600;28;20017;-54
2024/03/03 00:08:40;;;;;;;32.25;19.15;;;9.20;99.90;;;;;;5027634;28;20025;-52
2024/03/03 00:11:05;;;;;;;30.35;18.23;;;9.20;99.90;;;;;;5027630;28;20404;-53
2024/03/03 00:13:31;;;;;;;31.27;18.45;;;9.20;99.90;;;;;;5026786;28;20428;-54
2024/03/03 00:15:57;;;;;;;30.92;18.58;;;9.20;99.90;;;;;;5048372;28;20031;-60
2024/03/03 00:18:23;;;;;;;31.42;18.85;;;9.20;99.90;;;;;;5029159;28;20033;-56
2024/03/03 00:20:48;;;;;;;31.83;18.10;;;9.20;99.90;;;;;;5028344;28;20032;-57
2024/03/03 00:23:14;;;;;;;29.90;18.58;;;9.10;99.90;;;;;;5029372;28;20055;-56
2024/03/03 00:25:39;;;;;;;30.30;17.38;;;9.10;99.90;;;;;;5026884;28;20026;-56
2024/03/03 00:28:05;;;;;;;30.25;18.00;;;9.10;99.90;;;;;;5029867;28;20040;-59
2024/03/03 00:30:30;;;;;;;29.73;18.35;;;9.00;99.90;;;;;;5029646;28;20109;-53
2024/03/03 00:32:56;;;;;;;38.63;18.95;;;9.00;99.90;;;;;;5031652;28;20022;-51
2024/03/03 00:35:21;;;;;;;31.05;19.92;;;9.10;99.90;;;;;;5029592;28;20392;-56
2024/03/03 00:37:47;;;;;;;34.85;18.88;;;9.10;99.90;;;;;;5027664;28;20030;-53
2024/03/03 00:40:13;;;;;;;39.13;19.70;;;9.10;99.90;;;;;;5028951;28;20536;-57
2024/03/03 00:42:38;;;;;;;38.30;20.63;;;9.10;99.90;;;;;;5029101;28;20029;-56
2024/03/03 00:45:04;;;;;;;32.13;19.77;;;9.10;99.90;;;;;;5028820;28;20029;-56
2024/03/03 00:47:30;;;;;;;33.35;19.05;;;9.10;99.90;;;;;;5030132;28;20051;-54
2024/03/03 00:49:55;;;;;;;30.98;18.60;;;9.00;99.90;;;;;;5031695;28;20112;-52
2024/03/03 00:52:21;;;;;;;28.15;18.02;;;9.00;99.90;;;;;;5029375;28;20025;-57
2024/03/03 00:54:46;;;;;;;29.98;18.67;;;9.10;99.90;;;;;;5029062;28;20520;-50
2024/03/03 00:57:12;;;;;;;36.75;18.80;;;9.00;99.90;;;;;;5029065;28;20048;-57
2024/03/03 00:59:37;;;;;;;33.10;18.52;;;9.00;99.90;;;;;;5028428;28;20067;-53
2024/03/03 01:02:03;;;;;;;30.77;18.85;;;9.00;99.90;;;;;;5028690;28;20048;-53
2024/03/03 01:04:28;;;;;;;31.02;19.45;;;9.00;99.90;;;;;;5028974;28;20039;-57
2024/03/03 01:06:54;;;;;;;29.83;17.98;;;9.00;99.90;;;;;;5028514;28;20083;-56
2024/03/03 01:09:19;;;;;;;33.20;18.88;;;8.90;99.90;;;;;;5028548;28;20069;-51
2024/03/03 01:11:51;;;;;;;35.63;19.00;;;8.90;99.90;;;;;;5027075;28;20033;-52
2024/03/03 01:14:17;;;;;;;31.88;18.63;;;8.90;99.90;;;;;;5014699;28;20040;-58
2024/03/03 01:16:42;;;;;;;31.15;17.92;;;8.90;99.90;;;;;;5028357;28;20029;-49
2024/03/03 01:19:08;;;;;;;31.38;18.67;;;9.00;99.90;;;;;;5028209;28;20030;-51
2024/03/03 01:21:33;;;;;;;33.85;19.67;;;9.00;99.90;;;;;;5028440;28;20033;-54
2024/03/03 01:23:59;;;;;;;30.02;16.80;;;9.00;99.90;;;;;;5026723;28;20065;-54
2024/03/03 01:26:24;;;;;;;33.50;18.42;;;9.00;99.90;;;;;;5028546;28;20038;-52
2024/03/03 01:28:51;;;;;;;36.40;18.73;;;9.00;99.90;;;;;;5028137;28;20393;-54
2024/03/03 01:31:16;;;;;;;33.33;17.95;;;9.00;99.90;;;;;;5027933;28;20028;-52
2024/03/03 01:33:42;;;;;;;32.92;18.50;;;8.90;99.90;;;;;;5026561;28;20421;-49
2024/03/03 01:36:07;;;;;;;28.92;17.80;;;9.00;99.90;;;;;;5028432;28;20033;-57
2024/03/03 01:38:33;;;;;;;29.98;18.55;;;8.90;99.90;;;;;;5027085;28;20030;-53
2024/03/03 01:40:58;;;;;;;33.15;18.88;;;8.80;99.90;;;;;;5027010;28;20560;-49
2024/03/03 01:43:24;;;;;;;26.67;17.90;;;8.90;99.90;;;;;;5028399;28;20116;-48
2024/03/03 01:45:49;;;;;;;35.83;18.38;;;8.90;99.90;;;;;;5031532;28;20029;-48
2024/03/03 01:48:15;;;;;;;31.88;17.80;;;8.90;99.90;;;;;;5047367;28;20492;-54
2024/03/03 01:50:41;;;;;;;28.73;17.25;;;8.90;99.90;;;;;;5026535;28;20112;-50
2024/03/03 01:53:09;;;;;;;28.55;17.40;;;8.80;99.90;;;;;;5024921;28;20017;-48
2024/03/03 01:55:34;;;;;;;30.95;18.52;;;8.80;99.90;;;;;;5028235;28;20053;-52
2024/03/03 01:58:02;;;;;;;26.60;18.83;;;8.80;99.90;;;;;;5028963;28;20469;-51
2024/03/03 02:00:34;;;;;;;29.17;17.65;;;8.80;99.90;;;;;;5026317;23;20038;-53
2024/03/03 02:03:04;;;;;;;31.75;17.90;;;;;;;;;;5007637;28;20397;-49
2024/03/03 02:05:30;;;;;;;32.53;19.23;;;9.00;99.90;;;;;;5008748;28;20470;-52
2024/03/03 02:07:56;;;;;;;26.35;17.58;;;9.10;99.90;;;;;;5008504;28;20026;-53
2024/03/03 02:10:22;;;;;;;32.67;17.70;;;9.10;99.90;;;;;;5040309;28;20030;-52
2024/03/03 02:12:48;;;;;;;26.35;16.60;;;9.00;99.90;;;;;;5008592;28;20105;-53
2024/03/03 02:15:13;;;;;;;31.50;17.48;;;8.90;99.90;;;;;;5008331;28;20457;-54
2024/03/03 02:17:39;;;;;;;28.25;17.08;;;8.90;99.90;;;;;;5008571;28;20353;-55
2024/03/03 02:20:08;;;;;;;27.67;17.15;;;9.00;99.90;;;;;;5008496;28;20516;-53
2024/03/03 02:22:37;;;;;;;34.35;18.20;;;8.90;99.90;;;;;;5007116;28;20117;-50
2024/03/03 02:25:06;;;;;;;28.50;17.13;;;8.90;99.90;;;;;;5040698;28;20026;-54
2024/03/03 02:27:36;;;;;;;26.25;16.38;;;8.80;99.90;;;;;;5008881;28;20030;-59
2024/03/03 02:30:05;;;;;;;32.03;17.38;;;8.80;99.90;;;;;;5007231;28;20163;-57
2024/03/03 02:32:31;;;;;;;26.30;16.73;;;8.90;99.90;;;;;;5008295;28;20034;-50
2024/03/03 02:34:56;;;;;;;27.33;16.63;;;9.00;99.90;;;;;;5008336;28;20511;-51
2024/03/03 02:37:22;;;;;;;33.13;17.70;;;8.90;99.90;;;;;;5008927;28;20113;-57
2024/03/03 02:39:48;;;;;;;26.15;16.52;;;8.80;99.90;;;;;;5008212;28;20100;-56
2024/03/03 02:42:13;;;;;;;27.17;17.20;;;8.80;99.90;;;;;;5008517;28;20058;-51
2024/03/03 02:44:39;;;;;;;47.22;28.27;;;8.70;99.90;;;;;;5010268;28;20492;-52
2024/03/03 02:47:04;;;;;;;74.30;44.83;;;8.60;99.90;;;;;;5049485;28;20025;-53
2024/03/03 02:49:30;;;;;;;33.50;20.02;;;8.50;99.90;;;;;;5030936;28;20030;-55
2024/03/03 02:51:55;;;;;;;27.45;17.38;;;8.70;99.90;;;;;;5031341;28;20158;-51
2024/03/03 02:54:22;;;;;;;25.73;17.52;;;8.80;99.90;;;;;;5063137;28;20405;-55
2024/03/03 02:56:48;;;;;;;31.45;19.23;;;8.60;99.90;;;;;;5031224;28;20025;-53
2024/03/03 02:59:14;;;;;;;28.40;17.30;;;8.60;99.90;;;;;;5034242;28;20412;-53
2024/03/03 03:01:39;;;;;;;28.10;17.35;;;8.60;99.90;;;;;;5031872;28;20024;-50
2024/03/03 03:04:05;;;;;;;25.50;16.67;;;8.60;99.90;;;;;;5031839;28;20018;-49
2024/03/03 03:06:30;;;;;;;29.10;16.80;;;8.50;99.90;;;;;;5032931;28;20374;-46
2024/03/03 03:08:56;;;;;;;26.42;16.83;;;8.50;99.90;;;;;;5031984;28;20029;-46
2024/03/03 03:11:21;;;;;;;24.20;16.48;;;8.50;99.90;;;;;;5032996;28;20064;-50
2024/03/03 03:13:47;;;;;;;25.88;16.23;;;8.40;99.90;;;;;;5033080;28;20446;-47
2024/03/03 03:16:13;;;;;;;27.45;15.35;;;8.50;99.90;;;;;;5033731;28;20025;-46
2024/03/03 03:18:38;;;;;;;26.42;16.25;;;8.50;99.90;;;;;;5033501;28;20539;-47
2024/03/03 03:21:07;;;;;;;29.42;17.15;;;8.40;99.90;;;;;;5033690;28;20040;-50
2024/03/03 03:23:33;;;;;;;22.77;14.88;;;8.30;99.90;;;;;;5033596;28;20430;-46
2024/03/03 03:25:58;;;;;;;29.27;15.93;;;8.30;99.90;;;;;;5033580;28;20075;-46
2024/03/03 03:28:24;;;;;;;25.75;15.93;;;8.30;99.90;;;;;;5033365;28;20032;-52
2024/03/03 03:30:49;;;;;;;22.13;15.85;;;8.20;99.90;;;;;;5033503;28;20021;-48
2024/03/03 03:33:15;;;;;;;24.42;15.02;;;8.20;99.90;;;;;;5033984;28;20025;-46
2024/03/03 03:35:41;;;;;;;27.50;15.50;;;8.10;99.90;;;;;;5033787;28;20105;-48
2024/03/03 03:38:07;;;;;;;28.75;16.13;;;8.00;99.90;;;;;;5033333;28;20033;-48
2024/03/03 03:40:32;;;;;;;26.55;15.73;;;7.90;99.90;;;;;;5033230;28;20155;-48
2024/03/03 03:42:58;;;;;;;25.48;16.60;;;7.90;99.90;;;;;;5033565;28;20049;-43
2024/03/03 03:45:23;;;;;;;24.70;16.02;;;7.80;99.90;;;;;;5032930;28;20549;-48
2024/03/03 03:47:49;;;;;;;29.55;16.83;;;7.80;99.90;;;;;;5033046;28;20025;-48
2024/03/03 03:50:15;;;;;;;30.60;18.98;;;7.80;99.90;;;;;;5033065;28;20408;-50
2024/03/03 03:52:41;;;;;;;23.00;15.38;;;7.80;99.90;;;;;;5033135;28;20037;-47
2024/03/03 03:55:07;;;;;;;29.60;15.85;;;7.70;99.90;;;;;;5034167;28;20040;-48
2024/03/03 03:57:32;;;;;;;28.70;16.65;;;7.60;99.90;;;;;;5033945;28;20047;-50
2024/03/03 03:59:59;;;;;;;24.52;16.17;;;7.60;99.90;;;;;;5032432;28;20120;-44
2024/03/03 04:02:26;;;;;;;31.10;16.63;;;7.50;99.90;;;;;;5032718;28;20018;-49
2024/03/03 04:04:52;;;;;;;25.10;14.85;;;7.60;99.90;;;;;;5032796;28;20044;-47
2024/03/03 04:07:17;;;;;;;27.02;17.23;;;7.60;99.90;;;;;;5031363;28;20029;-48
2024/03/03 04:09:43;;;;;;;26.52;17.40;;;7.50;99.90;;;;;;5031258;28;20103;-46
2024/03/03 04:12:08;;;;;;;24.08;16.38;;;7.50;99.90;;;;;;5032632;28;20033;-48
2024/03/03 04:14:34;;;;;;;32.47;17.67;;;7.50;99.90;;;;;;5032624;28;20439;-48
2024/03/03 04:16:59;;;;;;;28.90;17.15;;;7.60;99.90;;;;;;5033018;28;20026;-51
2024/03/03 04:19:25;;;;;;;29.27;18.27;;;7.60;99.90;;;;;;5032331;28;20029;-47
2024/03/03 04:21:50;;;;;;;30.45;17.38;;;7.60;99.90;;;;;;5032217;28;20040;-49
2024/03/03 04:24:16;;;;;;;30.27;17.10;;;7.60;99.90;;;;;;5031300;28;20025;-48
2024/03/03 04:26:42;;;;;;;31.48;17.52;;;7.70;99.90;;;;;;5032471;28;20469;-48
2024/03/03 04:29:07;;;;;;;32.38;19.25;;;7.70;99.90;;;;;;5032303;28;20397;-46
2024/03/03 04:31:33;;;;;;;26.67;16.05;;;7.60;99.90;;;;;;5032250;28;20044;-47
2024/03/03 04:33:58;;;;;;;29.55;18.63;;;7.50;99.90;;;;;;5030711;28;20503;-47
2024/03/03 04:36:24;;;;;;;27.33;17.50;;;7.50;99.90;;;;;;5032056;28;20021;-47
2024/03/03 04:38:50;;;;;;;27.88;17.45;;;7.50;99.90;;;;;;5031918;28;20319;-47
2024/03/03 04:41:19;;;;;;;30.90;17.55;;;7.40;99.90;;;;;;5032152;28;20030;-46
2024/03/03 04:43:45;;;;;;;30.15;15.70;;;7.30;99.90;;;;;;5030651;28;20112;-46
2024/03/03 04:46:11;;;;;;;27.40;16.60;;;7.30;99.90;;;;;;5031989;28;20452;-47
2024/03/03 04:48:37;;;;;;;27.88;17.45;;;7.20;99.90;;;;;;5031698;28;20032;-51
2024/03/03 04:51:04;;;;;;;29.55;17.90;;;7.20;99.90;;;;;;5031885;28;20505;-49
2024/03/03 04:53:29;;;;;;;33.22;18.10;;;7.20;99.90;;;;;;5030613;28;20029;-51
2024/03/03 04:55:55;;;;;;;26.20;16.55;;;7.20;99.90;;;;;;5031818;28;20090;-49
2024/03/03 04:58:20;;;;;;;33.97;18.15;;;7.20;99.90;;;;;;5031166;28;20030;-46
2024/03/03 05:00:46;;;;;;;29.27;16.88;;;7.20;99.90;;;;;;5031700;28;20544;-48
2024/03/03 05:03:11;;;;;;;31.05;18.80;;;7.20;99.90;;;;;;5030413;28;20025;-48
2024/03/03 05:05:37;;;;;;;28.77;17.20;;;7.20;99.90;;;;;;5030350;28;20021;-51
2024/03/03 05:08:03;;;;;;;26.40;17.48;;;7.20;99.90;;;;;;5031090;28;20026;-47
2024/03/03 05:10:28;;;;;;;27.13;18.05;;;7.20;99.90;;;;;;5031617;28;20033;-46
2024/03/03 05:12:54;;;;;;;29.35;17.13;;;7.20;99.90;;;;;;5031454;28;20116;-49
2024/03/03 05:15:19;;;;;;;29.70;18.52;;;7.30;99.90;;;;;;5030282;28;20087;-45
2024/03/03 05:17:45;;;;;;;31.75;18.67;;;7.30;99.90;;;;;;5030178;28;20128;-46
2024/03/03 05:20:11;;;;;;;28.73;17.83;;;7.40;99.90;;;;;;5030201;28;20031;-47
2024/03/03 05:22:37;;;;;;;27.80;17.23;;;7.40;99.90;;;;;;5031605;28;20059;-47
2024/03/03 05:25:04;;;;;;;26.88;16.83;;;7.30;99.90;;;;;;5031105;28;20048;-47
2024/03/03 05:27:31;;;;;;;30.17;18.10;;;7.30;99.90;;;;;;5031494;28;20033;-50
2024/03/03 05:29:56;;;;;;;27.92;18.05;;;7.30;99.90;;;;;;5031344;28;20412;-49
2024/03/03 05:32:22;;;;;;;28.98;17.42;;;7.30;99.90;;;;;;5031344;28;20025;-49
2024/03/03 05:34:48;;;;;;;27.25;17.23;;;7.30;99.90;;;;;;5031354;28;20488;-47
2024/03/03 05:37:14;;;;;;;26.52;17.23;;;7.30;99.90;;;;;;5031299;28;20076;-46
2024/03/03 05:39:40;;;;;;;25.38;16.23;;;7.30;99.90;;;;;;5031352;28;20021;-46
2024/03/03 05:42:06;;;;;;;28.73;15.63;;;7.30;99.90;;;;;;5030035;28;20033;-48
2024/03/03 05:44:32;;;;;;;31.10;16.95;;;7.20;99.90;;;;;;5031299;28;20030;-47
2024/03/03 05:46:57;;;;;;;28.48;18.30;;;7.20;99.90;;;;;;5029838;28;20546;-48
2024/03/03 05:49:23;;;;;;;27.02;16.73;;;7.20;99.90;;;;;;5031024;28;20504;-50
2024/03/03 05:51:48;;;;;;;27.75;15.77;;;7.20;99.90;;;;;;5031263;28;20029;-48
2024/03/03 05:54:14;;;;;;;26.33;17.90;;;7.20;99.90;;;;;;5031311;28;20030;-47
2024/03/03 05:56:40;;;;;;;26.17;16.58;;;7.20;99.90;;;;;;5030882;28;20025;-50
2024/03/03 05:59:05;;;;;;;29.55;16.77;;;7.20;99.90;;;;;;5030611;28;20413;-48
2024/03/03 06:01:31;;;;;;;26.33;16.77;;;7.20;99.90;;;;;;5031205;28;20068;-49
2024/03/03 06:03:56;;;;;;;26.45;16.30;;;7.20;99.90;;;;;;5031027;28;20021;-46
2024/03/03 06:06:23;;;;;;;26.77;17.52;;;7.20;99.90;;;;;;5031063;28;20111;-47
2024/03/03 06:08:50;;;;;;;29.23;17.23;;;7.20;99.90;;;;;;5030784;28;20540;-49
2024/03/03 06:11:17;;;;;;;33.55;17.35;;;7.10;99.90;;;;;;5031080;28;20025;-51
2024/03/03 06:13:43;;;;;;;27.70;16.67;;;7.10;99.90;;;;;;5031128;28;20033;-46
2024/03/03 06:16:09;;;;;;;29.52;17.23;;;7.10;99.90;;;;;;5030950;28;20489;-46
2024/03/03 06:18:34;;;;;;;24.77;16.88;;;7.10;99.90;;;;;;5032886;28;20037;-51
2024/03/03 06:20:59;;;;;;;27.83;17.08;;;7.10;99.90;;;;;;5034765;28;20030;-46
2024/03/03 06:23:25;;;;;;;26.48;16.20;;;7.10;99.90;;;;;;5034679;28;20136;-50
2024/03/03 06:25:51;;;;;;;26.17;16.10;;;7.10;99.90;;;;;;5034584;28;20021;-47
2024/03/03 06:28:17;;;;;;;24.52;16.08;;;7.10;99.90;;;;;;5034176;28;20495;-50
2024/03/03 06:30:42;;;;;;;25.65;17.25;;;7.20;99.90;;;;;;5034635;28;20105;-52
2024/03/03 06:33:10;;;;;;;28.52;16.20;;;7.20;99.90;;;;;;5034563;28;20052;-47
2024/03/03 06:35:36;;;;;;;27.05;16.90;;;7.10;99.90;;;;;;5034362;28;20040;-48
2024/03/03 06:38:01;;;;;;;25.88;16.50;;;7.00;99.90;;;;;;5034265;28;20025;-48
2024/03/03 06:40:27;;;;;;;26.50;16.60;;;7.10;99.90;;;;;;5034353;28;20025;-49
2024/03/03 06:42:52;;;;;;;30.70;17.95;;;7.10;99.90;;;;;;5034670;28;20452;-46
2024/03/03 06:45:18;;;;;;;28.50;16.77;;;7.20;99.90;;;;;;5034188;28;20029;-48
2024/03/03 06:47:43;;;;;;;29.83;17.50;;;7.20;99.90;;;;;;5034076;28;20159;-49
2024/03/03 06:50:09;;;;;;;26.33;16.25;;;7.30;99.90;;;;;;5034079;28;20060;-47
2024/03/03 06:52:34;;;;;;;25.65;15.43;;;7.40;99.90;;;;;;5034239;28;20030;-47
2024/03/03 06:55:00;;;;;;;24.92;15.20;;;7.60;99.90;;;;;;5034074;28;20439;-50
2024/03/03 06:57:26;;;;;;;25.38;15.90;;;7.90;99.90;;;;;;5034289;28;20032;-47
2024/03/03 06:59:55;;;;;;;24.73;13.93;;;8.10;99.90;;;;;;5032503;28;20482;-49
2024/03/03 07:02:21;;;;;;;24.58;14.48;;;8.40;99.90;;;;;;5032973;28;20026;-46
2024/03/03 07:04:46;;;;;;;19.13;13.70;;;8.70;99.90;;;;;;5032843;28;20079;-47
2024/03/03 07:07:12;;;;;;;27.52;14.55;;;8.90;99.90;;;;;;5034172;28;20435;-47
2024/03/03 07:09:38;;;;;;;22.58;14.52;;;9.10;99.90;;;;;;5034015;28;20033;-50
2024/03/03 07:12:04;;;;;;;23.58;14.52;;;9.30;99.90;;;;;;5033960;28;20112;-50
2024/03/03 07:14:32;;;;;;;23.77;13.93;;;9.40;99.90;;;;;;5033887;28;20399;-49
2024/03/03 07:16:57;;;;;;;18.88;13.25;;;9.30;99.90;;;;;;5033778;28;20411;-46
2024/03/03 07:19:23;;;;;;;24.02;14.88;;;9.30;99.90;;;;;;5033363;28;20112;-43
2024/03/03 07:21:49;;;;;;;24.48;14.73;;;9.50;99.90;;;;;;5032738;28;20116;-49
2024/03/03 07:24:14;;;;;;;18.52;13.65;;;9.60;99.90;;;;;;5033685;28;20014;-51
2024/03/03 07:26:40;;;;;;;21.02;13.35;;;9.80;99.90;;;;;;5033632;28;20021;-47
2024/03/03 07:29:07;;;;;;;18.88;13.00;;;10.10;99.90;;;;;;5032857;28;20030;-48
2024/03/03 07:31:33;;;;;;;18.35;12.63;;;10.20;99.90;;;;;;5033369;28;20179;-50
2024/03/03 07:33:59;;;;;;;20.48;13.30;;;10.10;99.90;;;;;;5033250;28;20075;-52
2024/03/03 07:36:25;;;;;;;17.65;12.90;;;10.00;99.90;;;;;;5032347;28;20112;-46
2024/03/03 07:38:50;;;;;;;18.67;12.48;;;10.00;99.90;;;;;;5033077;28;20044;-46
2024/03/03 07:41:16;;;;;;;25.20;13.75;;;10.10;99.90;;;;;;5033428;28;20028;-46
2024/03/03 07:43:42;;;;;;;19.73;13.63;;;10.30;99.90;;;;;;5033377;28;20049;-49
2024/03/03 07:46:07;;;;;;;21.50;13.55;;;10.10;99.90;;;;;;5033233;28;20100;-48
2024/03/03 07:48:33;;;;;;;19.58;13.27;;;9.90;99.90;;;;;;5032959;28;20100;-46
2024/03/03 07:51:02;;;;;;;19.77;14.18;;;9.70;99.90;;;;;;5033237;28;20156;-47
2024/03/03 07:53:27;;;;;;;21.70;14.52;;;9.50;99.90;;;;;;5033129;28;20044;-51
2024/03/03 07:55:53;;;;;;;22.30;14.18;;;9.40;99.90;;;;;;5033397;28;20108;-45
2024/03/03 07:58:18;;;;;;;21.30;14.18;;;9.30;99.90;;;;;;5031320;28;20037;-49
2024/03/03 08:00:44;;;;;;;24.20;14.50;;;9.30;99.90;;;;;;5053190;22;20420;-52
2024/03/03 08:03:10;;;;;;;21.13;14.15;;;9.30;99.90;;;;;;5031667;28;20084;-52
2024/03/03 08:05:35;;;;;;;23.80;15.82;;;9.30;99.90;;;;;;5032487;28;20021;-49
2024/03/03 08:08:02;;;;;;;25.98;15.57;;;9.30;99.90;;;;;;5032694;28;20030;-53
2024/03/03 08:10:28;;;;;;;23.88;14.95;;;9.30;99.90;;;;;;5032758;28;20060;-50
2024/03/03 08:12:54;;;;;;;22.55;14.65;;;9.20;99.90;;;;;;5031421;28;20064;-47
2024/03/03 08:15:20;;;;;;;28.67;14.50;;;9.10;99.90;;;;;;5031312;28;20079;-49
2024/03/03 08:17:46;;;;;;;21.42;14.65;;;9.10;99.90;;;;;;5032608;28;20448;-48
2024/03/03 08:20:11;;;;;;;22.75;15.30;;;9.10;99.90;;;;;;5031124;28;20075;-50
2024/03/03 08:22:44;;;;;;;21.15;14.65;;;9.30;99.90;;;;;;5032481;28;20022;-53
2024/03/03 08:25:13;;;;;;;21.40;14.35;;;9.40;99.90;;;;;;5031231;28;20022;-50
2024/03/03 08:27:39;;;;;;;21.67;14.20;;;9.40;99.90;;;;;;5031347;28;20406;-55
2024/03/03 08:30:06;;;;;;;23.67;15.07;;;9.40;99.90;;;;;;5031349;28;20026;-52
2024/03/03 08:32:32;;;;;;;25.02;14.05;;;9.30;99.90;;;;;;5032678;28;20036;-53
2024/03/03 08:35:02;;;;;;;21.60;14.43;;;9.50;99.90;;;;;;5032448;28;20026;-53
2024/03/03 08:37:27;;;;;;;23.00;14.07;;;9.50;99.90;;;;;;5030838;28;20506;-52
2024/03/03 08:39:53;;;;;;;22.02;14.63;;;9.70;99.90;;;;;;5032431;28;20030;-50
2024/03/03 08:42:18;;;;;;;21.70;14.95;;;9.60;99.90;;;;;;5031031;28;20025;-50
2024/03/03 08:44:44;;;;;;;22.30;13.98;;;9.80;99.90;;;;;;5032138;28;20545;-47
2024/03/03 08:47:09;;;;;;;23.63;15.02;;;9.80;99.90;;;;;;5032548;28;20032;-53
2024/03/03 08:49:35;;;;;;;21.00;14.25;;;9.90;99.90;;;;;;5032205;28;20025;-51
2024/03/03 08:52:05;;;;;;;20.27;14.13;;;10.00;99.90;;;;;;5032017;28;20150;-50
2024/03/03 08:54:31;;;;;;;19.73;13.80;;;10.10;99.90;;;;;;5030626;28;20025;-50
2024/03/03 08:56:57;;;;;;;21.55;14.13;;;10.00;99.90;;;;;;5032135;28;20037;-51
2024/03/03 08:59:22;;;;;;;22.45;15.27;;;10.00;99.90;;;;;;5030068;28;20036;-50
2024/03/03 09:01:48;;;;;;;25.38;15.25;;;10.10;99.90;;;;;;5030935;28;20022;-52
2024/03/03 09:04:14;;;;;;;22.58;15.35;;;10.10;99.90;;;;;;5032087;28;20599;-53
2024/03/03 09:06:40;;;;;;;22.38;15.13;;;10.10;99.90;;;;;;5031601;28;20080;-54
2024/03/03 09:09:06;;;;;;;23.88;14.50;;;10.30;99.90;;;;;;5031615;28;20455;-48
2024/03/03 09:11:34;;;;;;;23.90;17.05;;;10.30;99.90;;;;;;5031561;28;20104;-51
2024/03/03 09:14:00;;;;;;;22.90;15.07;;;10.40;99.90;;;;;;5031746;28;20034;-50
2024/03/03 09:16:25;;;;;;;20.42;13.40;;;10.50;99.90;;;;;;5030304;28;20135;-53
2024/03/03 09:18:53;;;;;;;24.05;15.68;;;10.40;99.90;;;;;;5031626;28;20036;-53
2024/03/03 09:21:20;;;;;;;23.00;14.98;;;10.50;99.90;;;;;;5031669;28;20063;-51
2024/03/03 09:23:46;;;;;;;24.85;15.82;;;10.40;99.90;;;;;;5030193;28;20029;-50
2024/03/03 09:26:11;;;;;;;23.52;15.38;;;10.40;99.90;;;;;;5030230;28;20032;-50
2024/03/03 09:28:37;;;;;;;25.02;14.70;;;10.50;99.90;;;;;;5031363;28;20025;-54
2024/03/03 09:31:04;;;;;;;20.98;15.05;;;10.60;99.90;;;;;;5031481;28;20017;-49
2024/03/03 09:33:29;;;;;;;20.10;13.55;;;11.00;99.90;;;;;;5030096;28;20452;-55
2024/03/03 09:35:55;;;;;;;22.98;14.27;;;12.00;99.90;;;;;;5031360;28;20030;-52
2024/03/03 09:38:20;;;;;;;19.38;14.18;;;12.60;99.90;;;;;;5030197;28;20032;-49
2024/03/03 09:40:46;;;;;;;17.73;12.98;;;13.00;99.90;;;;;;5030084;28;20032;-48
2024/03/03 09:43:18;;;;;;;20.27;13.13;;;13.30;99.90;;;;;;5031387;28;20467;-51
2024/03/03 09:45:47;;;;;;;23.23;13.85;;;13.60;99.90;;;;;;5031070;28;20025;-54
2024/03/03 09:48:13;;;;;;;19.17;14.05;;;13.80;99.90;;;;;;5029619;28;20022;-50
2024/03/03 09:50:39;;;;;;;21.02;12.18;;;13.80;99.90;;;;;;5031302;28;20056;-52
2024/03/03 09:53:10;;;;;;;19.67;13.05;;;13.90;99.90;;;;;;5031672;28;20436;-51
2024/03/03 09:55:37;;;;;;;19.13;12.65;;;13.70;99.90;;;;;;5035422;28;20038;-49
2024/03/03 09:58:03;;;;;;;21.08;13.07;;;13.70;99.90;;;;;;5035015;28;20032;-51
2024/03/03 10:00:31;;;;;;;18.52;13.93;;;14.10;99.90;;;;;;5034585;28;20025;-54
2024/03/03 10:02:58;;;;;;;20.08;11.45;;;14.30;99.90;;;;;;5037701;28;20022;-56
2024/03/03 10:05:25;;;;;;;19.13;13.48;;;14.10;99.90;;;;;;5035007;28;20056;-57
2024/03/03 10:07:54;;;;;;;18.23;13.05;;;13.90;99.90;;;;;;5034028;28;20148;-55
2024/03/03 10:10:25;;;;;;;18.88;13.07;;;13.70;99.90;;;;;;5034863;28;20033;-52
2024/03/03 10:12:53;;;;;;;20.80;14.00;;;13.70;99.90;;;;;;5034833;28;20098;-52
2024/03/03 10:15:20;;;;;;;18.13;13.07;;;13.60;99.90;;;;;;5035128;28;20025;-53
2024/03/03 10:17:46;;;;;;;20.40;14.02;;;13.50;99.90;;;;;;5034657;28;20436;-48
2024/03/03 10:20:12;;;;;;;18.48;13.40;;;13.40;99.90;;;;;;5034237;28;20029;-49
2024/03/03 10:22:40;;;;;;;18.67;12.55;;;13.50;99.90;;;;;;5033897;28;20048;-48
2024/03/03 10:25:10;;;;;;;20.67;13.55;;;13.60;99.90;;;;;;5034584;28;20477;-53
2024/03/03 10:27:44;;;;;;;20.83;12.10;;;13.90;99.90;;;;;;5034598;28;20022;-52
2024/03/03 10:30:12;;;;;;;17.33;12.30;;;13.90;99.90;;;;;;5034684;28;20018;-46
2024/03/03 10:32:41;;;;;;;20.00;12.38;;;14.10;99.90;;;;;;5034179;28;20485;-54
2024/03/03 10:35:11;;;;;;;19.23;12.75;;;14.20;99.90;;;;;;5033642;28;20172;-48
2024/03/03 10:37:52;;;;;;;17.08;12.68;;;14.30;99.90;;;;;;5033065;28;20036;-49
2024/03/03 10:40:20;;;;;;;19.30;13.02;;;14.40;99.90;;;;;;5017820;28;20037;-49
2024/03/03 10:42:46;;;;;;;18.80;12.75;;;14.40;99.90;;;;;;5024453;28;20022;-53
2024/03/03 10:45:11;;;;;;;20.45;12.55;;;14.30;99.90;;;;;;5032418;28;20026;-50
2024/03/03 10:47:37;;;;;;;15.50;11.90;;;14.10;99.90;;;;;;5032375;28;20053;-52
2024/03/03 10:50:13;;;;;;;18.05;12.35;;;14.10;99.90;;;;;;5033201;28;20572;-50
2024/03/03 10:52:39;;;;;;;16.42;13.13;;;14.10;99.90;;;;;;5033126;28;20033;-50
2024/03/03 10:55:09;;;;;;;20.92;12.38;;;14.10;99.90;;;;;;5034085;28;20025;-52
2024/03/03 10:57:35;;;;;;;14.68;10.50;;;14.30;99.90;;;;;;5032042;28;20425;-52
2024/03/03 11:00:04;;;;;;;18.60;12.32;;;14.20;99.90;;;;;;5033462;28;20034;-51
2024/03/03 11:02:30;;;;;;;20.85;12.23;;;14.20;99.90;;;;;;5033108;28;20056;-53
2024/03/03 11:04:56;;;;;;;15.27;10.45;;;14.10;99.90;;;;;;5033056;28;20299;-49
2024/03/03 11:07:23;;;;;;;14.15;10.95;;;14.10;99.90;;;;;;5032546;28;20018;-48
2024/03/03 11:09:50;;;;;;;16.27;11.68;;;14.00;99.90;;;;;;5050921;28;20302;-53
2024/03/03 11:12:19;;;;;;;13.63;10.27;;;14.00;99.90;;;;;;5039168;28;20488;-49
2024/03/03 11:14:46;;;;;;;12.38;9.68;;;14.10;99.90;;;;;;5035210;28;20044;-53
2024/03/03 11:17:19;;;;;;;14.98;10.75;;;14.00;99.90;;;;;;5036044;28;20400;-52
2024/03/03 11:19:49;;;;;;;17.20;10.50;;;13.90;99.90;;;;;;5034606;28;20029;-48
2024/03/03 11:22:21;;;;;;;17.65;11.25;;;13.90;99.90;;;;;;5032340;28;20033;-52
2024/03/03 11:24:56;;;;;;;14.88;9.93;;;14.00;99.90;;;;;;5033683;28;20024;-46
2024/03/03 11:27:24;;;;;;;16.23;10.52;;;14.00;99.90;;;;;;5033160;28;20097;-49
2024/03/03 11:29:50;;;;;;;14.43;10.30;;;14.50;99.90;;;;;;5031789;28;20514;-50
2024/03/03 11:32:17;;;;;;;15.30;10.13;;;14.10;99.90;;;;;;5032328;28;20505;-45
2024/03/03 11:34:44;;;;;;;14.65;10.55;;;14.00;99.90;;;;;;5031937;28;20034;-45
2024/03/03 11:37:12;;;;;;;16.10;10.98;;;14.00;99.90;;;;;;5033141;28;20034;-49
2024/03/03 11:39:49;;;;;;;16.92;10.93;;;14.10;99.90;;;;;;5032940;28;20064;-49
2024/03/03 11:42:21;;;;;;;16.08;10.30;;;14.20;99.90;;;;;;5032081;28;20029;-50
2024/03/03 11:44:48;;;;;;;16.88;11.45;;;14.10;99.90;;;;;;5022229;28;20025;-53
2024/03/03 11:47:14;;;;;;;38.47;24.40;;;14.10;99.90;;;;;;5033287;28;20045;-52
2024/03/03 11:49:41;;;;;;;31.55;21.50;;;14.20;99.90;;;;;;5040106;28;20033;-54
2024/03/03 11:52:07;;;;;;;16.90;10.65;;;14.20;99.90;;;;;;5052690;28;20037;-51
2024/03/03 11:54:41;;;;;;;15.20;9.60;;;14.20;99.90;;;;;;5051697;28;20396;-53
2024/03/03 11:57:09;;;;;;;16.98;10.18;;;14.30;99.90;;;;;;5052799;28;20400;-51
2024/03/03 11:59:43;;;;;;;13.90;9.77;;;14.40;99.90;;;;;;5046553;28;20629;-52
2024/03/03 12:02:13;;;;;;;13.40;10.20;;;14.30;99.90;;;;;;5031927;28;20029;-50
2024/03/03 12:04:42;;;;;;;16.02;9.82;;;14.40;99.90;;;;;;5033016;28;20531;-52
2024/03/03 12:07:20;;;;;;;12.70;9.02;;;14.40;99.90;;;;;;5032673;28;20032;-52
2024/03/03 12:09:48;;;;;;;14.40;9.32;;;14.50;99.90;;;;;;5032760;28;20081;-52
2024/03/03 12:12:14;;;;;;;15.57;10.35;;;14.50;99.90;;;;;;5032452;28;20481;-52
2024/03/03 12:14:42;;;;;;;13.15;9.85;;;14.50;99.90;;;;;;5031764;28;20044;-50
2024/03/03 12:17:08;;;;;;;11.55;9.05;;;14.60;99.90;;;;;;5032343;28;20033;-58
2024/03/03 12:19:37;;;;;;;11.52;9.48;;;14.60;99.90;;;;;;5032124;28;20574;-50
2024/03/03 12:22:04;;;;;;;14.98;10.15;;;14.60;99.90;;;;;;5032696;28;20025;-54
2024/03/03 12:24:31;;;;;;;14.30;9.25;;;14.60;99.90;;;;;;5031346;28;20045;-54
2024/03/03 12:26:57;;;;;;;10.20;8.25;;;14.60;99.90;;;;;;5031241;28;20029;-52
2024/03/03 12:29:22;;;;;;;14.65;9.50;;;14.70;99.90;;;;;;5030950;28;20033;-55